createdAt,value
2022-10-11T00:02:20.964Z,7.90
2022-10-11T00:04:50.553Z,8.00
2022-10-11T00:07:19.049Z,8.10
2022-10-11T00:09:46.500Z,8.00
2022-10-11T00:12:13.540Z,8.00
2022-10-11T00:14:40.639Z,7.80
2022-10-11T00:17:10.410Z,7.70
2022-10-11T00:19:37.370Z,7.90
2022-10-11T00:22:04.502Z,7.80
2022-10-11T00:24:31.658Z,7.90
2022-10-11T00:26:58.536Z,7.80
2022-10-11T00:29:25.444Z,7.90
2022-10-11T00:31:52.362Z,7.90
2022-10-11T00:34:19.403Z,7.80
2022-10-11T00:36:46.597Z,7.70
2022-10-11T00:39:14.610Z,7.70
2022-10-11T00:41:41.901Z,7.60
2022-10-11T00:44:19.219Z,7.50
2022-10-11T00:46:56.514Z,7.60
2022-10-11T00:49:34.544Z,7.60
2022-10-11T00:52:13.278Z,7.40
2022-10-11T00:54:43.504Z,7.30
2022-10-11T00:57:16.617Z,7.40
2022-10-11T00:59:49.166Z,7.30
2022-10-11T01:02:17.327Z,7.30
2022-10-11T01:04:44.671Z,7.30
2022-10-11T01:07:12.267Z,7.20
2022-10-11T01:09:39.225Z,7.20
2022-10-11T01:12:23.211Z,7.20
2022-10-11T01:15:11.479Z,7.10
2022-10-11T01:17:50.231Z,7.10
2022-10-11T01:21:10.071Z,7.00
2022-10-11T01:24:07.476Z,6.90
2022-10-11T01:26:35.382Z,7.00
2022-10-11T01:29:20.813Z,7.00
2022-10-11T01:32:06.056Z,6.90
2022-10-11T01:34:41.127Z,6.80
2022-10-11T01:37:14.096Z,6.80
2022-10-11T01:40:12.774Z,6.70
2022-10-11T01:42:41.749Z,6.80
2022-10-11T01:45:12.788Z,6.80
2022-10-11T01:47:39.973Z,6.80
2022-10-11T01:50:08.161Z,6.80
2022-10-11T01:52:40.419Z,6.70
2022-10-11T01:55:35.180Z,6.70
2022-10-11T01:58:24.862Z,6.70
2022-10-11T02:01:05.386Z,6.70
2022-10-11T02:03:56.825Z,6.90
2022-10-11T02:06:33.943Z,7.00
2022-10-11T02:09:13.571Z,6.90
2022-10-11T02:11:41.340Z,6.80
2022-10-11T02:14:24.634Z,6.80
2022-10-11T02:17:04.577Z,6.80
2022-10-11T02:19:36.355Z,6.80
2022-10-11T02:22:08.279Z,6.70
2022-10-11T02:24:36.607Z,6.80
2022-10-11T02:27:05.579Z,6.80
2022-10-11T02:29:38.730Z,6.80
2022-10-11T02:32:06.905Z,6.90
2022-10-11T02:34:37.985Z,6.80
2022-10-11T02:37:08.067Z,6.80
2022-10-11T02:40:08.848Z,6.80
2022-10-11T02:42:59.838Z,6.80
2022-10-11T02:45:41.027Z,6.80
2022-10-11T02:48:11.391Z,6.90
2022-10-11T02:50:40.113Z,6.90
2022-10-11T02:53:07.312Z,6.80
2022-10-11T02:55:34.668Z,6.70
2022-10-11T02:58:02.305Z,6.80
2022-10-11T03:00:29.665Z,6.90
2022-10-11T03:02:56.716Z,7.00
2022-10-11T03:05:23.589Z,7.10
2022-10-11T03:07:50.603Z,7.00
2022-10-11T03:10:17.570Z,6.90
2022-10-11T03:12:44.466Z,6.90
2022-10-11T03:15:11.393Z,6.90
2022-10-11T03:17:38.305Z,6.80
2022-10-11T03:20:07.097Z,6.70
2022-10-11T03:22:34.009Z,6.70
2022-10-11T03:25:04.292Z,6.50
2022-10-11T03:27:35.014Z,6.50
2022-10-11T03:30:02.194Z,6.50
2022-10-11T03:32:29.775Z,6.60
2022-10-11T03:34:56.932Z,6.70
2022-10-11T03:37:25.545Z,6.70
2022-10-11T03:39:52.450Z,6.50
2022-10-11T03:42:19.570Z,6.60
2022-10-11T03:44:49.467Z,6.60
2022-10-11T03:47:16.540Z,6.60
2022-10-11T03:49:43.883Z,6.50
2022-10-11T03:52:11.436Z,6.40
2022-10-11T03:54:38.523Z,6.20
2022-10-11T03:57:05.469Z,6.20
2022-10-11T03:59:32.385Z,6.30
2022-10-11T04:01:59.398Z,6.50
2022-10-11T04:04:26.460Z,6.60
2022-10-11T04:06:53.638Z,6.40
2022-10-11T04:09:20.557Z,6.40
2022-10-11T04:11:47.490Z,6.30
2022-10-11T04:14:14.507Z,6.20
2022-10-11T04:16:42.008Z,6.20
2022-10-11T04:19:08.950Z,6.20
2022-10-11T04:21:35.865Z,6.30
2022-10-11T04:24:02.843Z,6.30
2022-10-11T04:26:29.851Z,6.10
2022-10-11T04:28:56.826Z,6.10
2022-10-11T04:31:23.950Z,6.10
2022-10-11T04:33:51.014Z,6.00
2022-10-11T04:36:17.888Z,5.90
2022-10-11T04:38:44.788Z,5.80
2022-10-11T04:41:17.788Z,5.90
2022-10-11T04:43:44.645Z,6.10
2022-10-11T04:46:11.968Z,6.10
2022-10-11T04:48:40.455Z,6.00
2022-10-11T04:51:07.460Z,6.00
2022-10-11T04:53:34.402Z,5.90
2022-10-11T04:56:07.927Z,5.90
2022-10-11T04:58:35.831Z,5.90
2022-10-11T05:01:03.516Z,5.90
2022-10-11T05:03:30.518Z,5.90
2022-10-11T05:05:59.208Z,5.90
2022-10-11T05:08:28.972Z,5.90
2022-10-11T05:11:07.313Z,5.80
2022-10-11T05:13:35.611Z,5.90
2022-10-11T05:16:10.568Z,5.90
2022-10-11T05:18:39.086Z,5.90
2022-10-11T05:21:26.776Z,5.90
2022-10-11T05:23:55.999Z,5.80
2022-10-11T05:26:24.679Z,5.80
2022-10-11T05:28:52.368Z,5.90
2022-10-11T05:31:20.511Z,6.00
2022-10-11T05:33:47.879Z,5.80
2022-10-11T05:36:15.071Z,5.80
2022-10-11T05:38:43.450Z,5.80
2022-10-11T05:41:12.738Z,5.80
2022-10-11T05:43:39.796Z,5.80
2022-10-11T05:46:07.396Z,5.90
2022-10-11T05:48:34.738Z,5.70
2022-10-11T05:51:06.581Z,5.70
2022-10-11T05:53:33.647Z,5.70
2022-10-11T05:56:00.757Z,5.70
2022-10-11T05:58:27.976Z,5.60
2022-10-11T06:00:57.228Z,5.70
2022-10-11T06:03:24.462Z,5.70
2022-10-11T06:05:56.529Z,5.80
2022-10-11T06:08:24.208Z,5.90
2022-10-11T06:10:51.272Z,5.80
2022-10-11T06:13:18.711Z,5.80
2022-10-11T06:15:45.664Z,5.80
2022-10-11T06:18:13.850Z,5.90
2022-10-11T06:20:43.442Z,5.90
2022-10-11T06:23:12.100Z,5.90
2022-10-11T06:25:40.233Z,6.00
2022-10-11T06:28:07.122Z,6.10
2022-10-11T06:30:34.023Z,6.10
2022-10-11T06:33:04.659Z,6.20
2022-10-11T06:35:31.963Z,6.30
2022-10-11T06:37:58.811Z,6.30
2022-10-11T06:40:25.822Z,6.20
2022-10-11T06:42:52.870Z,6.20
2022-10-11T06:45:19.745Z,6.20
2022-10-11T06:47:46.681Z,6.20
2022-10-11T06:50:13.819Z,6.40
2022-10-11T06:52:40.890Z,6.50
2022-10-11T06:55:08.413Z,6.50
2022-10-11T06:57:35.422Z,6.50
2022-10-11T07:00:03.751Z,6.70
2022-10-11T07:02:31.753Z,6.70
2022-10-11T07:04:58.873Z,6.70
2022-10-11T07:07:25.813Z,6.70
2022-10-11T07:09:52.803Z,6.80
2022-10-11T07:12:19.836Z,6.80
2022-10-11T07:14:47.067Z,6.90
2022-10-11T07:17:14.657Z,6.90
2022-10-11T07:19:41.800Z,7.00
2022-10-11T07:22:09.101Z,7.00
2022-10-11T07:24:35.980Z,7.10
2022-10-11T07:27:06.413Z,7.10
2022-10-11T07:29:33.843Z,7.20
2022-10-11T07:32:00.893Z,7.20
2022-10-11T07:34:27.964Z,7.30
2022-10-11T07:36:54.890Z,7.40
2022-10-11T07:39:22.420Z,7.50
2022-10-11T07:41:49.631Z,7.70
2022-10-11T07:44:19.456Z,7.80
2022-10-11T07:46:46.321Z,7.90
2022-10-11T07:49:13.297Z,8.10
2022-10-11T07:51:40.811Z,8.20
2022-10-11T07:54:07.854Z,8.20
2022-10-11T07:56:40.436Z,8.20
2022-10-11T07:59:08.122Z,8.40
2022-10-11T08:01:35.209Z,8.50
2022-10-11T08:04:02.202Z,8.60
2022-10-11T08:06:32.676Z,8.80
2022-10-11T08:09:01.034Z,9.00
2022-10-11T08:11:33.902Z,9.20
2022-10-11T08:14:01.736Z,9.30
2022-10-11T08:16:28.837Z,9.40
2022-10-11T08:18:57.476Z,9.50
2022-10-11T08:21:26.943Z,9.50
2022-10-11T08:23:54.117Z,9.60
2022-10-11T08:26:21.597Z,9.80
2022-10-11T08:28:48.904Z,9.80
2022-10-11T08:31:17.838Z,9.90
2022-10-11T08:33:44.963Z,10.00
2022-10-11T08:36:12.815Z,10.10
2022-10-11T08:38:40.631Z,10.20
2022-10-11T08:41:22.220Z,10.40
2022-10-11T08:43:52.469Z,10.40
2022-10-11T08:46:27.637Z,10.60
2022-10-11T08:48:55.169Z,10.70
2022-10-11T08:51:27.368Z,10.80
2022-10-11T08:54:18.381Z,10.70
2022-10-11T08:56:46.622Z,10.80
2022-10-11T08:59:13.522Z,11.00
2022-10-11T09:01:54.264Z,11.10
2022-10-11T09:04:21.312Z,11.30
2022-10-11T09:06:52.450Z,11.40
2022-10-11T09:09:46.493Z,11.50
2022-10-11T09:12:53.135Z,11.70
2022-10-11T09:15:33.989Z,11.90
2022-10-11T09:18:21.998Z,12.00
2022-10-11T09:20:58.776Z,12.20
2022-10-11T09:23:44.826Z,12.30
2022-10-11T09:26:29.033Z,12.50
2022-10-11T09:29:21.095Z,12.50
2022-10-11T09:31:52.669Z,12.60
2022-10-11T09:34:21.973Z,12.60
2022-10-11T09:37:24.455Z,12.80
2022-10-11T09:40:00.087Z,12.90
2022-10-11T09:42:27.437Z,13.10
2022-10-11T09:44:55.232Z,13.20
2022-10-11T09:47:27.534Z,13.20
2022-10-11T09:50:06.524Z,13.20
2022-10-11T09:52:33.993Z,13.30
2022-10-11T09:55:02.649Z,13.50
2022-10-11T09:57:36.434Z,13.50
2022-10-11T10:00:24.959Z,13.60
2022-10-11T10:02:57.793Z,13.70
2022-10-11T10:05:38.537Z,13.80
2022-10-11T10:08:11.284Z,14.00
2022-10-11T10:11:04.286Z,14.10
2022-10-11T10:13:52.373Z,14.10
2022-10-11T10:16:31.139Z,14.20
2022-10-11T10:19:03.791Z,14.30
2022-10-11T10:21:38.111Z,14.30
2022-10-11T10:24:18.616Z,14.40
2022-10-11T10:27:10.377Z,14.50
2022-10-11T10:29:40.034Z,14.60
2022-10-11T10:32:23.252Z,14.70
2022-10-11T10:35:04.265Z,14.70
2022-10-11T10:38:05.332Z,14.70
2022-10-11T10:41:04.027Z,14.90
2022-10-11T10:43:36.128Z,15.00
2022-10-11T10:46:24.332Z,14.90
2022-10-11T10:52:04.525Z,14.90
2022-10-11T10:54:52.543Z,15.00
2022-10-11T10:57:27.753Z,15.10
2022-10-11T11:00:15.891Z,15.40
2022-10-11T11:02:58.005Z,15.40
2022-10-11T11:05:36.629Z,15.20
2022-10-11T11:08:15.660Z,15.20
2022-10-11T11:11:01.400Z,15.20
2022-10-11T11:13:47.006Z,15.20
2022-10-11T11:16:31.329Z,15.50
2022-10-11T11:19:25.891Z,15.70
2022-10-11T11:22:08.637Z,15.80
2022-10-11T11:25:05.924Z,15.70
2022-10-11T11:27:38.745Z,15.60
2022-10-11T11:30:10.934Z,15.90
2022-10-11T11:32:46.856Z,16.00
2022-10-11T11:35:32.216Z,16.10
2022-10-11T11:38:17.095Z,16.00
2022-10-11T11:40:52.033Z,16.10
2022-10-11T11:43:28.243Z,16.20
2022-10-11T11:46:09.617Z,16.30
2022-10-11T11:48:37.545Z,16.70
2022-10-11T11:51:37.410Z,16.60
2022-10-11T11:54:08.362Z,16.60
2022-10-11T11:56:56.168Z,17.00
2022-10-11T11:59:33.253Z,16.90
2022-10-11T12:02:22.280Z,16.80
2022-10-11T12:04:51.202Z,17.10
2022-10-11T12:07:22.277Z,16.80
2022-10-11T12:10:14.657Z,16.70
2022-10-11T12:12:41.727Z,16.80
2022-10-11T12:15:08.634Z,16.60
2022-10-11T12:17:58.161Z,16.70
2022-10-11T12:20:48.792Z,16.70
2022-10-11T12:23:49.988Z,16.50
2022-10-11T12:26:19.581Z,16.30
2022-10-11T12:29:05.810Z,16.40
2022-10-11T12:31:35.969Z,16.20
2022-10-11T12:34:05.310Z,16.20
2022-10-11T12:36:52.081Z,16.30
2022-10-11T12:39:22.578Z,16.00
2022-10-11T12:41:53.765Z,16.00
2022-10-11T12:44:21.005Z,15.70
2022-10-11T12:46:50.967Z,15.60
2022-10-11T12:49:32.352Z,15.60
2022-10-11T12:52:04.002Z,15.60
2022-10-11T12:54:52.880Z,15.80
2022-10-11T12:57:33.013Z,16.20
2022-10-11T13:00:31.205Z,16.30
2022-10-11T13:03:04.783Z,16.40
2022-10-11T13:05:48.762Z,16.60
2022-10-11T13:08:40.795Z,16.80
2022-10-11T13:11:18.476Z,17.00
2022-10-11T13:14:08.455Z,17.10
2022-10-11T13:17:04.460Z,17.00
2022-10-11T13:19:33.994Z,17.00
2022-10-11T13:22:04.638Z,17.00
2022-10-11T13:24:37.931Z,17.20
2022-10-11T13:27:09.072Z,17.30
2022-10-11T13:29:43.659Z,17.50
2022-10-11T13:32:20.765Z,17.50
2022-10-11T13:34:52.656Z,17.50
2022-10-11T13:37:22.867Z,17.80
2022-10-11T13:39:52.947Z,17.80
2022-10-11T13:42:25.670Z,17.90
2022-10-11T13:44:52.817Z,17.90
2022-10-11T13:47:24.729Z,17.70
2022-10-11T13:50:02.743Z,17.70
2022-10-11T13:52:29.633Z,17.50
2022-10-11T13:55:04.015Z,17.40
2022-10-11T13:57:43.043Z,17.60
2022-10-11T14:00:15.754Z,17.40
2022-10-11T14:02:54.827Z,17.20
2022-10-11T14:05:39.112Z,17.60
2022-10-11T14:08:20.625Z,17.50
2022-10-11T14:10:51.757Z,17.50
2022-10-11T14:13:35.597Z,17.60
2022-10-11T14:16:04.945Z,17.70
2022-10-11T14:18:39.636Z,17.60
2022-10-11T14:21:34.738Z,17.40
2022-10-11T14:24:12.792Z,17.30
2022-10-11T14:26:51.749Z,17.30
2022-10-11T14:29:21.849Z,17.40
2022-10-11T14:31:49.810Z,17.50
2022-10-11T14:34:25.842Z,17.50
2022-10-11T14:36:53.711Z,17.70
2022-10-11T14:39:26.356Z,17.60
2022-10-11T14:41:54.485Z,17.60
2022-10-11T14:44:22.153Z,17.80
2022-10-11T14:46:54.045Z,18.00
2022-10-11T14:49:26.511Z,17.80
2022-10-11T14:51:55.337Z,17.70
2022-10-11T14:54:25.163Z,17.50
2022-10-11T14:56:54.386Z,17.50
2022-10-11T14:59:23.791Z,17.60
2022-10-11T15:01:53.503Z,17.40
2022-10-11T15:04:22.437Z,17.40
2022-10-11T15:06:50.321Z,17.50
2022-10-11T15:09:17.426Z,17.40
2022-10-11T15:11:44.575Z,17.50
2022-10-11T15:14:11.447Z,17.40
2022-10-11T15:16:40.357Z,17.30
2022-10-11T15:19:18.054Z,17.30
2022-10-11T15:21:45.720Z,17.30
2022-10-11T15:24:13.039Z,17.20
2022-10-11T15:26:40.428Z,17.20
2022-10-11T15:29:11.934Z,17.20
2022-10-11T15:31:41.559Z,17.30
2022-10-11T15:34:08.595Z,17.00
2022-10-11T15:36:35.547Z,16.90
2022-10-11T15:39:02.579Z,16.90
2022-10-11T15:41:29.522Z,16.70
2022-10-11T15:43:56.656Z,16.50
2022-10-11T15:46:23.704Z,16.30
2022-10-11T15:48:51.934Z,16.30
2022-10-11T15:51:22.021Z,16.30
2022-10-11T15:53:50.610Z,16.20
2022-10-11T15:56:19.034Z,16.20
2022-10-11T15:58:46.271Z,16.10
2022-10-11T16:01:19.000Z,16.00
2022-10-11T16:03:48.358Z,15.90
2022-10-11T16:06:16.329Z,15.90
2022-10-11T16:08:43.389Z,15.80
2022-10-11T16:11:11.109Z,15.80
2022-10-11T16:13:39.408Z,15.70
2022-10-11T16:16:08.535Z,15.60
2022-10-11T16:18:36.318Z,15.60
2022-10-11T16:21:09.016Z,15.50
2022-10-11T16:23:36.894Z,15.50
2022-10-11T16:26:06.700Z,15.50
2022-10-11T16:28:34.374Z,15.40
2022-10-11T16:31:11.003Z,15.30
2022-10-11T16:33:45.942Z,15.20
2022-10-11T16:36:40.289Z,15.20
2022-10-11T16:39:18.605Z,15.10
2022-10-11T16:41:48.748Z,15.00
2022-10-11T16:44:18.784Z,14.90
2022-10-11T16:46:50.665Z,14.90
2022-10-11T16:49:18.570Z,14.80
2022-10-11T16:51:45.885Z,14.70
2022-10-11T16:54:16.566Z,14.50
2022-10-11T16:56:47.139Z,14.40
2022-10-11T16:59:16.043Z,14.40
2022-10-11T17:01:45.079Z,14.40
2022-10-11T17:04:12.792Z,14.20
2022-10-11T17:06:40.925Z,14.10
2022-10-11T17:09:07.884Z,14.00
2022-10-11T17:11:35.931Z,13.80
2022-10-11T17:14:05.125Z,13.70
2022-10-11T17:16:32.186Z,13.70
2022-10-11T17:18:59.180Z,13.70
2022-10-11T17:21:26.158Z,13.60
2022-10-11T17:23:53.222Z,13.50
2022-10-11T17:26:28.243Z,13.50
2022-10-11T17:28:59.495Z,13.40
2022-10-11T17:31:29.694Z,13.30
2022-10-11T17:34:01.323Z,13.30
2022-10-11T17:36:31.993Z,13.20
2022-10-11T17:38:59.905Z,13.20
2022-10-11T17:41:32.262Z,13.10
2022-10-11T17:44:01.143Z,13.10
2022-10-11T17:46:32.400Z,13.00
2022-10-11T17:49:01.405Z,12.90
2022-10-11T17:51:28.935Z,12.90
2022-10-11T17:53:55.973Z,12.80
2022-10-11T17:56:29.552Z,12.80
2022-10-11T17:59:01.112Z,12.80
2022-10-11T18:01:29.425Z,12.60
2022-10-11T18:03:59.517Z,12.50
2022-10-11T18:06:28.983Z,12.30
2022-10-11T18:08:59.245Z,12.30
2022-10-11T18:11:26.385Z,12.20
2022-10-11T18:13:54.688Z,12.20
2022-10-11T18:16:25.097Z,12.20
2022-10-11T18:18:52.020Z,12.10
2022-10-11T18:21:19.808Z,12.20
2022-10-11T18:23:47.007Z,12.20
2022-10-11T18:26:25.455Z,12.10
2022-10-11T18:28:56.731Z,12.00
2022-10-11T18:31:27.094Z,12.00
2022-10-11T18:33:54.795Z,12.00
2022-10-11T18:36:24.396Z,12.00
2022-10-11T18:38:57.173Z,12.00
2022-10-11T18:41:30.658Z,12.00
2022-10-11T18:44:04.146Z,11.90
2022-10-11T18:46:31.542Z,11.90
2022-10-11T18:49:01.332Z,11.80
2022-10-11T18:51:39.735Z,11.70
2022-10-11T18:54:12.082Z,11.60
2022-10-11T18:56:43.758Z,11.60
2022-10-11T18:59:11.289Z,11.60
2022-10-11T19:01:41.582Z,11.50
2022-10-11T19:04:10.501Z,11.50
2022-10-11T19:06:43.267Z,11.40
2022-10-11T19:09:17.894Z,11.40
2022-10-11T19:11:44.967Z,11.30
2022-10-11T19:14:15.208Z,11.20
2022-10-11T19:16:51.500Z,11.20
2022-10-11T19:19:20.795Z,11.10
2022-10-11T19:21:51.548Z,11.00
2022-10-11T19:24:20.550Z,11.00
2022-10-11T19:26:48.238Z,10.90
2022-10-11T19:29:20.641Z,10.90
2022-10-11T19:31:50.842Z,10.80
2022-10-11T19:34:18.963Z,10.70
2022-10-11T19:36:46.902Z,10.70
2022-10-11T19:39:15.830Z,10.60
2022-10-11T19:41:44.851Z,10.60
2022-10-11T19:44:12.831Z,10.60
2022-10-11T19:46:55.396Z,10.60
2022-10-11T19:49:25.317Z,10.60
2022-10-11T19:51:56.405Z,10.60
2022-10-11T19:54:24.640Z,10.50
2022-10-11T19:56:53.315Z,10.50
2022-10-11T19:59:20.383Z,10.40
2022-10-11T20:01:52.286Z,10.40
2022-10-11T20:04:51.163Z,10.40
2022-10-11T20:07:17.911Z,10.40
2022-10-11T20:09:51.308Z,10.30
2022-10-11T20:12:20.603Z,10.30
2022-10-11T20:14:47.633Z,10.20
2022-10-11T20:17:18.087Z,10.20
2022-10-11T20:19:45.182Z,10.20
2022-10-11T20:22:18.187Z,10.10
2022-10-11T20:24:48.447Z,9.90
2022-10-11T20:27:21.585Z,10.00
2022-10-11T20:29:50.392Z,9.90
2022-10-11T20:32:18.389Z,9.90
2022-10-11T20:34:47.455Z,9.90
2022-10-11T20:37:14.741Z,9.80
2022-10-11T20:39:41.750Z,9.80
2022-10-11T20:42:08.769Z,9.80
2022-10-11T20:44:37.142Z,9.70
2022-10-11T20:47:07.083Z,9.70
2022-10-11T20:49:35.051Z,9.60
2022-10-11T20:52:02.055Z,9.40
2022-10-11T20:54:30.564Z,9.50
2022-10-11T20:56:59.294Z,9.40
2022-10-11T20:59:26.540Z,9.40
2022-10-11T21:01:54.305Z,9.40
2022-10-11T21:04:21.389Z,9.30
2022-10-11T21:06:50.668Z,9.40
2022-10-11T21:09:17.764Z,9.40
2022-10-11T21:11:46.434Z,9.30
2022-10-11T21:14:14.437Z,9.30
2022-10-11T21:16:41.996Z,9.20
2022-10-11T21:19:13.937Z,9.20
2022-10-11T21:21:51.171Z,9.20
2022-10-11T21:24:20.808Z,9.00
2022-10-11T21:26:47.896Z,8.90
2022-10-11T21:29:15.014Z,8.90
2022-10-11T21:31:41.926Z,8.90
2022-10-11T21:34:08.894Z,8.90
2022-10-11T21:36:36.034Z,8.90
2022-10-11T21:39:03.891Z,8.80
2022-10-11T21:41:30.987Z,8.80
2022-10-11T21:43:58.822Z,8.80
2022-10-11T21:47:31.615Z,8.80
2022-10-11T21:49:19.753Z,8.80
2022-10-11T21:51:46.780Z,8.70
2022-10-11T21:54:14.505Z,8.70
2022-10-11T21:56:42.230Z,8.60
2022-10-11T21:59:12.395Z,8.60
2022-10-11T22:01:41.786Z,8.50
2022-10-11T22:04:09.582Z,8.40
2022-10-11T22:06:37.680Z,8.40
2022-10-11T22:09:06.521Z,8.40
2022-10-11T22:11:33.953Z,8.30
2022-10-11T22:14:01.900Z,8.30
2022-10-11T22:16:28.938Z,8.30
2022-10-11T22:18:56.088Z,8.40
2022-10-11T22:21:23.884Z,8.40
2022-10-11T22:23:53.279Z,8.30
2022-10-11T22:26:22.725Z,8.20
2022-10-11T22:28:50.117Z,8.20
2022-10-11T22:31:19.431Z,8.10
2022-10-11T22:33:46.779Z,8.10
2022-10-11T22:36:17.190Z,8.10
2022-10-11T22:38:45.028Z,8.10
2022-10-11T22:41:12.322Z,8.10
2022-10-11T22:43:39.336Z,8.00
2022-10-11T22:46:06.861Z,7.90
2022-10-11T22:48:34.165Z,7.90
2022-10-11T22:51:02.058Z,8.00
2022-10-11T22:53:29.104Z,8.10
2022-10-11T22:55:56.040Z,8.10
2022-10-11T22:58:23.390Z,8.00
2022-10-11T23:00:50.446Z,8.00
2022-10-11T23:03:18.381Z,7.90
2022-10-11T23:05:54.628Z,7.90
2022-10-11T23:08:21.633Z,7.80
2022-10-11T23:10:48.476Z,7.90
2022-10-11T23:13:15.792Z,7.80
2022-10-11T23:15:43.067Z,7.90
2022-10-11T23:18:10.197Z,7.80
2022-10-11T23:20:39.509Z,7.80
2022-10-11T23:23:07.198Z,7.70
2022-10-11T23:25:34.416Z,7.70
2022-10-11T23:28:01.995Z,7.60
2022-10-11T23:30:29.749Z,7.60
2022-10-11T23:32:57.005Z,7.60
2022-10-11T23:35:24.244Z,7.70
2022-10-11T23:37:53.721Z,7.70
2022-10-11T23:40:21.025Z,7.70
2022-10-11T23:42:47.890Z,7.60
2022-10-11T23:45:14.954Z,7.50
2022-10-11T23:47:41.900Z,7.50
2022-10-11T23:50:09.216Z,7.60
2022-10-11T23:52:36.426Z,7.70
2022-10-11T23:55:03.777Z,7.70
2022-10-11T23:57:30.880Z,7.60
2022-10-11T23:59:57.779Z,7.50
